Metar Cercanos

 

LEPA - Palma De Mallorc, Spain
Distance from station: ONO 38km
Actualización: Sun, 05-Dec-2021 3:00am CET
Few Clouds
Few Clouds
 Viento del ONO
Viento: ONO 17 km/h
Temperatura: 15°C
Rocío: 7°C
Humedad: 59%
Barómetro: 1014 hPa
Clouds: Few Clouds
Visibility: 10 km
Cloud details: Few Clouds 914 m
2021/12/05 02:00 LEPA 050200Z 30009KT 9999 FEW030 15/07 Q1014 NOSIG
LEMH - Mahon/Menorca Is, Spain
Distance from station: ENE 105km
Actualización: Sun, 05-Dec-2021 3:00am CET
Few Clouds
Few Clouds
 Viento del O
Viento: O 15 km/h
Temperatura: 13°C
Rocío: 8°C
Humedad: 72%
Barómetro: 1013 hPa
Clouds: Few Clouds
Visibility: 10 km
Cloud details: Few Clouds 1219 m
2021/12/05 02:00 LEMH 050200Z 28008KT 230V330 9999 FEW040 13/08 Q1013
 
LEIB - Ibiza/Es Codola, Spain
Distance from station: OSO 165km
Actualización: Sun, 05-Dec-2021 3:00am CET
Despejado
Despejado
 Viento del O
Viento: O 30 km/h
Temperatura: 15°C
Rocío: 8°C
Humedad: 63%
Barómetro: 1016 hPa
Resumen: Despejado
Visibility: greater than 10 km
2021/12/05 02:00 LEIB 050200Z AUTO 27016KT CAVOK 15/08 Q1016
LEBL - Barcelona Airpor, Spain
Distance from station: NNO 225km
Actualización: Sun, 05-Dec-2021 3:00am CET
Few Clouds
Few Clouds
 Viento del ONO
Viento: ONO 9 km/h
Temperatura: 9°C
Sensación frio: 7°C
Rocío: 2°C
Humedad: 62%
Barómetro: 1013 hPa
Clouds: Few Clouds
Visibility: 10 km
Cloud details: Few Clouds 457 m
2021/12/05 02:00 LEBL 050200Z 30005KT 280V340 9999 FEW015 09/02 Q1013 NOSIG
 
LEVC - Valencia (civ/Mi, Spain
Distance from station: NO 188km
Actualización: Sun, 05-Dec-2021 3:00am CET
Despejado
Despejado
 Viento del O
Viento: O 28 km/h
Temperatura: 14°C
Rocío: 5°C
Humedad: 55%
Barómetro: 1017 hPa
Resumen: Despejado
Visibility: greater than 10 km
2021/12/05 02:00 LEVC 050200Z 27015KT CAVOK 14/05 Q1017 NOSIG
LEGE - Gerona/Costa Bra, Spain
Distance from station: N 276km
Actualización: Sun, 05-Dec-2021 3:00am CET
Despejado
Despejado
 Viento del ENE
Viento: ENE 6 km/h
Temperatura: 4°C
Rocío: 3°C
Humedad: 93%
Barómetro: 1011 hPa
Resumen: Despejado
Visibility: greater than 10 km
2021/12/05 02:00 LEGE 050200Z 06003KT CAVOK 04/03 Q1011
 
LEAL - Alicante/El Alte, Spain
Distance from station: OSO 344km
Actualización: Sun, 05-Dec-2021 3:00am CET
Few Clouds
Few Clouds
 Viento del OSO
Viento: OSO 11 km/h
Temperatura: 13°C
Rocío: 6°C
Humedad: 63%
Barómetro: 1019 hPa
Clouds: Few Clouds
Visibility: 10 km
Cloud details: Few Clouds 1219 m
2021/12/05 02:00 LEAL 050200Z 25006KT 220V280 9999 FEW040 13/06 Q1019 NOSIG
LEAM - Almeria Airport, Spain
Distance from station: SSO 56km
Actualización: Sun, 05-Dec-2021 3:00am CET
Despejado
Despejado
 Viento del varies
Viento: varies 2 km/h
Temperatura: 14°C
Rocío: 4°C
Humedad: 51%
Barómetro: 1019 hPa
Resumen: Despejado
Visibility: greater than 10 km
2021/12/05 02:00 LEAM 050200Z AUTO VRB01KT CAVOK 14/04 Q1019
 
LEZG - Zaragoza (mil/Ci, Spain
Distance from station: NO 431km
Actualización: Sun, 05-Dec-2021 3:00am CET
Parcialmente nuboso
Parcialmente nuboso
 Viento del O
Viento: O 15 km/h
Temperatura: 7°C
Sensación frio: 4°C
Rocío: 4°C
Humedad: 81%
Barómetro: 1017 hPa
Clouds: Parcialmente nuboso
Visibility: 10 km
Cloud details: Few Clouds 610 m
Parcialmente nuboso 2591 m
2021/12/05 02:00 LEZG 050200Z 28008KT 9999 FEW020 SCT085 07/04 Q1017
LEMD - Madrid/Barajas, Spain
Distance from station: ONO 234km
Actualización: Sun, 05-Dec-2021 3:00am CET
Despejado
Despejado
 Viento del O
Viento: O 30 km/h
Temperatura: 9°C
Sensación frio: 5°C
Rocío: 1°C
Humedad: 58%
Barómetro: 1020 hPa
Resumen: Despejado
Visibility: greater than 10 km
2021/12/05 02:00 LEMD 050200Z 28016KT CAVOK 09/01 Q1020 NOSIG
 
LEGR - Granada Airport, Spain
Distance from station: OSO 62km
Actualización: Sun, 05-Dec-2021 3:00am CET
Despejado
Despejado
 Viento del varies
Viento: varies 2 km/h
Temperatura: 5°C
Rocío: 5°C
Humedad: 100%
Barómetro: 1024 hPa
Resumen: Despejado
Visibility: greater than 10 km
2021/12/05 02:00 LEGR 050200Z AUTO VRB01KT CAVOK 05/05 Q1024
LEMG - Malaga (civ/Mil), Spain
Distance from station: OSO 227km
Actualización: Sun, 05-Dec-2021 3:00am CET
Few Clouds
Few Clouds
 Viento del ONO
Viento: ONO 28 km/h, Racha: 46 km/h
Temperatura: 16°C
Rocío: 10°C
Humedad: 68%
Barómetro: 1023 hPa
Clouds: Few Clouds
Visibility: 10 km
Cloud details: Few Clouds 1219 m
2021/12/05 02:00 LEMG 050200Z 29015G25KT 260V320 9999 FEW040 16/10 Q1023 NOSIG
 
LEZL - Sevilla (civ/Mil, Spain
Distance from station: S 318km
Actualización: Sun, 05-Dec-2021 3:00am CET
Despejado
Despejado
 Viento del SO
Viento: SO 2 km/h
Temperatura: 9°C
Rocío: 8°C
Humedad: 94%
Barómetro: 1025 hPa
Clouds: Despejado
Visibility: 9 km
2021/12/05 02:00 LEZL 050200Z AUTO 22001KT 9000 NCD 09/08 Q1025
LEVT - Vitoria, Spain
Distance from station: NO 226km
Actualización: Sun, 05-Dec-2021 3:00am CET
Lluvia débil, Muy nuboso
Lluvia débil, Muy nuboso
 Viento del ONO
Viento: ONO 20 km/h
Temperatura: 5°C
Sensación frio: 1°C
Rocío: 3°C
Humedad: 87%
Barómetro: 1017 hPa
Resumen: Lluvia débil
Clouds: Muy nuboso
Visibility: 10 km
Cloud details: Parcialmente nuboso 549 m
Muy nuboso 1067 m
2021/12/05 02:00 LEVT 050200Z 29011KT 250V320 9999 -RA SCT018 BKN035 05/03 Q1017
 
LEBB - Bilbao/Sondica, Spain
Distance from station: NNO 235km
Actualización: Sun, 05-Dec-2021 3:00am CET
Lluvia débil, Muy nuboso
Lluvia débil, Muy nuboso
 Viento del OSO
Viento: OSO 11 km/h
Temperatura: 8°C
Sensación frio: 6°C
Rocío: 6°C
Humedad: 87%
Barómetro: 1017 hPa
Resumen: Lluvia débil
Clouds: Muy nuboso
Visibility: 10 km
Cloud details: Few Clouds 792 m
Parcialmente nuboso 975 m
Muy nuboso 1372 m
2021/12/05 02:00 LEBB 050200Z AUTO 25006KT 210V300 9999 -RA FEW026 SCT032 BKN045 08/06 Q1017 RERA
LESO - San Sebastian/Fu, Spain
Distance from station: N 231km
Actualización: Sun, 05-Dec-2021 3:00am CET
Muy nuboso
Muy nuboso
 Viento del SO
Viento: SO 20 km/h
Temperatura: 8°C
Sensación frio: 4°C
Rocío: 6°C
Humedad: 87%
Barómetro: 1016 hPa
Clouds: Muy nuboso
Visibility: 10 km
Cloud details: Parcialmente nuboso 762 m
Muy nuboso 1036 m
Muy nuboso 1494 m
2021/12/05 02:00 LESO 050200Z AUTO 22011KT 200V260 9999 SCT025 BKN034 BKN049 08/06 Q1016
 
LEVD - Valladolid(Mil/C, Spain
Distance from station: ONO 239km
Actualización: Sun, 05-Dec-2021 3:00am CET
Despejado
Despejado
 Viento del OSO
Viento: OSO 19 km/h
Temperatura: 0°C
Sensación frio: -5°C
Rocío: -2°C
Humedad: 87%
Barómetro: 1021 hPa
Resumen: Despejado
Visibility: greater than 10 km
2021/12/05 02:00 LEVD 050200Z AUTO 25010KT CAVOK 00/M02 Q1021
LESA - Salamanca (civ/M, Spain
Distance from station: ONO 349km
Actualización: Sun, 05-Dec-2021 3:00am CET
Despejado
Despejado
 Viento del O
Viento: O 22 km/h
Temperatura: 3°C
Sensación frio: -2°C
Rocío: 0°C
Humedad: 81%
Barómetro: 1023 hPa
Resumen: Despejado
Visibility: greater than 10 km
2021/12/05 02:00 LESA 050200Z AUTO 27012KT CAVOK 03/00 Q1023
 
LEXJ - Santander/Paraya, Spain
Distance from station: NNO 247km
Actualización: Sun, 05-Dec-2021 3:00am CET
Nearby thunderstorm, Lluvia débil, Showers, Thunderstorm
Nearby thunderstorm, Lluvia débil, Showers, Thunderstorm
 Viento del O
Viento: O 26 km/h
Temperatura: 9°C
Sensación frio: 6°C
Rocío: 7°C
Humedad: 87%
Barómetro: 1018 hPa
Resumen: Nearby thunderstorm, Lluvia débil, Showers
Clouds: Thunderstorm
Visibility: 9 km
Cloud details: Parcialmente nuboso 488 m
Muy nuboso 701 m
Muy nuboso 1372 m
2021/12/05 02:00 LEXJ 050200Z AUTO 27014KT 240V300 9000 VCTS -SHRA SCT016/// BKN023/// BKN045/// ///CB 09/07 Q1018
LEAS - Asturias/Aviles, Spain
Distance from station: NO 214km
Actualización: Sun, 05-Dec-2021 3:00am CET
Lluvia débil, Muy nuboso
Lluvia débil, Muy nuboso
 Viento del O
Viento: O 37 km/h
Temperatura: 9°C
Sensación frio: 4°C
Rocío: 7°C
Humedad: 87%
Barómetro: 1021 hPa
Resumen: Lluvia débil
Clouds: Muy nuboso
Visibility: 9 km
Cloud details: Parcialmente nuboso 853 m
Muy nuboso 1036 m
Muy nuboso 1311 m
2021/12/05 02:00 LEAS 050200Z AUTO 26020KT 230V290 9000 -RA SCT028 BKN034 BKN043 09/07 Q1021
 
LECO - La Coruna/Alvedr, Spain
Distance from station: ONO 222km
Actualización: Sun, 05-Dec-2021 3:00am CET
Lluvia, Few clouds
Lluvia, Few clouds
 Viento del NO
Viento: NO 26 km/h, Racha: 59 km/h
Temperatura: 10°C
Sensación frio: 7°C
Rocío: 8°C
Humedad: 88%
Barómetro: 1026 hPa
Resumen: Lluvia
Clouds: Few Clouds
Visibility: 8 km
Cloud details: Few Clouds 762 m
2021/12/05 02:00 LECO 050200Z AUTO 32014G32KT 260V020 8000 RA FEW025 10/08 Q1026
LEVX - Vigo/Peinador, Spain
Distance from station: O 214km
Actualización: Sun, 05-Dec-2021 3:00am CET
Muy nuboso
Muy nuboso
 Viento del ONO
Viento: ONO 9 km/h
Temperatura: 10°C
Sensación frio: 9°C
Rocío: 5°C
Humedad: 71%
Barómetro: 1027 hPa
Clouds: Muy nuboso
Visibility: 10 km
Cloud details: Muy nuboso 1402 m
2021/12/05 02:00 LEVX 050200Z 30005KT 260V330 9999 BKN046 10/05 Q1027 NOSIG